Time;durP1;ratioP1;P1;durP2;ratioP2;P2;SDS_P1;SDS_P2;PMS_P1;PMS_P2;Temp;Humidity;BMP_temperature;BMP_pressure;BME280_temperature;BME280_humidity;BME280_pressure;Samples;Min_cycle;Max_cycle;Signal;HPM_P1;HPM_P2
2021/07/14 00:00:27;;;;;;;15.25;9.20;;;;;;;;;;4404167;32;20360;-55
2021/07/14 00:02:54;;;;;;;13.23;9.38;;;;;;;;;;4404171;32;20239;-56
2021/07/14 00:05:20;;;;;;;12.93;8.93;;;;;;;;;;4403941;32;20318;-55
2021/07/14 00:07:49;;;;;;;15.15;10.43;;;;;;;;;;4403953;32;20242;-55
2021/07/14 00:10:19;;;;;;;10.68;9.35;;;;;;;;;;4404293;32;20294;-56
2021/07/14 00:13:07;;;;;;;17.30;9.50;;;;;;;;;;4404760;32;20233;-56
2021/07/14 00:23:35;;;;;;;9.52;8.43;;;;;;;;;;4404309;32;20316;-54
2021/07/14 00:26:01;;;;;;;11.05;8.60;;;;;;;;;;4404130;32;20267;-56
2021/07/14 00:28:27;;;;;;;10.18;9.18;;;;;;;;;;4403565;32;20233;-55
2021/07/14 00:30:56;;;;;;;9.40;8.40;;;;;;;;;;4403578;32;20823;-55
2021/07/14 00:33:22;;;;;;;11.93;8.80;;;;;;;;;;4403943;32;20579;-56
2021/07/14 00:35:48;;;;;;;12.07;8.90;;;;;;;;;;4404018;32;20759;-55
2021/07/14 00:38:14;;;;;;;12.50;9.98;;;;;;;;;;4403198;32;20209;-55
2021/07/14 00:40:39;;;;;;;9.38;8.45;;;;;;;;;;4403732;32;20261;-56
2021/07/14 00:43:06;;;;;;;13.95;9.02;;;;;;;;;;4403736;32;20606;-55
2021/07/14 00:45:32;;;;;;;10.20;8.77;;;;;;;;;;4402629;32;20238;-55
2021/07/14 00:48:00;;;;;;;10.48;9.38;;;;;;;;;;4404309;32;20217;-55
2021/07/14 00:50:26;;;;;;;9.90;8.65;;;;;;;;;;4403971;32;20255;-55
2021/07/14 00:52:51;;;;;;;10.23;8.20;;;;;;;;;;4403818;32;20319;-55
2021/07/14 00:55:17;;;;;;;10.32;8.85;;;;;;;;;;4403639;32;20662;-54
2021/07/14 00:57:42;;;;;;;14.02;9.55;;;;;;;;;;4403596;32;20761;-54
2021/07/14 01:00:10;;;;;;;10.40;8.75;;;;;;;;;;4403497;32;20664;-55
2021/07/14 01:02:35;;;;;;;11.48;9.05;;;;;;;;;;4402086;32;20225;-56
2021/07/14 01:05:04;;;;;;;13.15;9.23;;;;;;;;;;4404103;32;20286;-56
2021/07/14 01:07:51;;;;;;;10.40;8.85;;;;;;;;;;4402975;32;20554;-55
2021/07/14 01:10:22;;;;;;;12.30;9.40;;;;;;;;;;4393310;32;20248;-55
2021/07/14 01:12:59;;;;;;;13.62;9.63;;;;;;;;;;4402198;32;20346;-55
2021/07/14 01:15:27;;;;;;;10.30;8.30;;;;;;;;;;4403492;32;20315;-55
2021/07/14 01:17:55;;;;;;;10.82;9.73;;;;;;;;;;4403274;32;20233;-54
2021/07/14 01:20:48;;;;;;;15.75;14.02;;;;;;;;;;4403389;32;20295;-56
2021/07/14 01:23:41;;;;;;;14.20;12.05;;;;;;;;;;4403462;32;20407;-55
2021/07/14 01:26:18;;;;;;;12.43;11.23;;;;;;;;;;4403281;32;20272;-55
2021/07/14 01:28:47;;;;;;;12.85;11.52;;;;;;;;;;4402716;32;20253;-55
2021/07/14 01:31:18;;;;;;;12.65;9.48;;;;;;;;;;4403176;32;20271;-55
2021/07/14 01:33:45;;;;;;;11.20;9.60;;;;;;;;;;4403299;32;20229;-55
2021/07/14 01:36:15;;;;;;;12.43;10.45;;;;;;;;;;4403063;32;20650;-56
2021/07/14 01:38:42;;;;;;;10.88;9.23;;;;;;;;;;4402708;32;20260;-56
2021/07/14 01:41:09;;;;;;;11.45;9.60;;;;;;;;;;4401887;32;20304;-55
2021/07/14 01:43:41;;;;;;;14.48;9.88;;;;;;;;;;4402984;32;20334;-55
2021/07/14 01:46:09;;;;;;;16.20;9.15;;;;;;;;;;4403457;32;20186;-55
2021/07/14 01:48:41;;;;;;;12.35;9.27;;;;;;;;;;4402465;32;20708;-55
2021/07/14 01:51:08;;;;;;;10.00;8.82;;;;;;;;;;4402899;32;20206;-56
2021/07/14 01:53:37;;;;;;;12.15;9.30;;;;;;;;;;4402808;32;20844;-55
2021/07/14 01:56:09;;;;;;;13.07;9.25;;;;;;;;;;4402681;32;20337;-55
2021/07/14 01:58:37;;;;;;;11.50;10.35;;;;;;;;;;4402210;32;20336;-55
2021/07/14 02:01:06;;;;;;;17.75;8.95;;;;;;;;;;4402799;32;20703;-55
2021/07/14 02:06:00;;;;;;;13.43;9.25;;;;;;;;;;4402233;32;20269;-55
2021/07/14 02:08:27;;;;;;;10.80;9.00;;;;;;;;;;4402088;32;20253;-55
2021/07/14 02:10:55;;;;;;;11.93;9.20;;;;;;;;;;4402790;32;20220;-55
2021/07/14 02:13:22;;;;;;;14.20;9.68;;;;;;;;;;4402378;32;20248;-55
2021/07/14 02:15:53;;;;;;;11.35;9.13;;;;;;;;;;4402434;32;20899;-55
2021/07/14 02:18:22;;;;;;;9.30;8.38;;;;;;;;;;4402504;32;20421;-54
2021/07/14 02:20:47;;;;;;;18.35;9.57;;;;;;;;;;4402465;32;20205;-55
2021/07/14 02:23:13;;;;;;;9.82;8.85;;;;;;;;;;4401268;32;20492;-54
2021/07/14 02:25:38;;;;;;;11.40;10.18;;;;;;;;;;4401138;32;20332;-57
2021/07/14 02:28:04;;;;;;;11.57;9.18;;;;;;;;;;4393819;32;20332;-55
2021/07/14 02:30:30;;;;;;;14.82;10.25;;;;;;;;;;4386989;32;20379;-55
2021/07/14 02:33:00;;;;;;;11.82;9.70;;;;;;;;;;4387142;32;20288;-55
2021/07/14 02:35:27;;;;;;;12.20;10.70;;;;;;;;;;4387318;32;20765;-56
2021/07/14 02:38:06;;;;;;;13.00;10.32;;;;;;;;;;4399350;32;20227;-55
2021/07/14 02:40:38;;;;;;;12.68;10.02;;;;;;;;;;4402454;32;20205;-55
2021/07/14 02:43:05;;;;;;;17.40;11.65;;;;;;;;;;4402113;32;20488;-55
2021/07/14 02:45:33;;;;;;;12.77;10.10;;;;;;;;;;4400760;32;20570;-55
2021/07/14 02:48:01;;;;;;;16.15;10.40;;;;;;;;;;4401943;32;20285;-55
2021/07/14 02:50:31;;;;;;;11.25;9.75;;;;;;;;;;4402187;32;20260;-54
2021/07/14 02:53:02;;;;;;;14.45;10.90;;;;;;;;;;4402251;32;20296;-55
2021/07/14 02:55:31;;;;;;;12.68;9.68;;;;;;;;;;4392833;32;20221;-56
2021/07/14 02:58:00;;;;;;;11.48;9.95;;;;;;;;;;4388987;32;20245;-55
2021/07/14 03:00:28;;;;;;;12.95;11.12;;;;;;;;;;4399942;32;20567;-55
2021/07/14 03:02:55;;;;;;;13.98;10.90;;;;;;;;;;4401946;32;20597;-55
2021/07/14 03:05:21;;;;;;;11.27;9.68;;;;;;;;;;4402119;32;20549;-55
2021/07/14 03:07:48;;;;;;;13.23;10.52;;;;;;;;;;4401401;32;20700;-56
2021/07/14 03:10:18;;;;;;;14.98;10.13;;;;;;;;;;4386644;32;20252;-55
2021/07/14 03:12:46;;;;;;;10.77;9.73;;;;;;;;;;4386782;32;20221;-55
2021/07/14 03:15:13;;;;;;;15.30;11.20;;;;;;;;;;4386984;32;20604;-55
2021/07/14 03:17:40;;;;;;;11.60;10.40;;;;;;;;;;4387089;32;20281;-55
2021/07/14 03:20:09;;;;;;;16.10;9.88;;;;;;;;;;4387256;32;20300;-55
2021/07/14 03:22:42;;;;;;;19.02;11.50;;;;;;;;;;4386822;32;20256;-55
2021/07/14 03:25:10;;;;;;;11.68;9.95;;;;;;;;;;4386995;32;20313;-56
2021/07/14 03:27:36;;;;;;;11.68;10.43;;;;;;;;;;4391613;32;20565;-55
2021/07/14 03:30:02;;;;;;;15.45;10.02;;;;;;;;;;4402195;32;20260;-55
2021/07/14 03:32:28;;;;;;;14.45;10.60;;;;;;;;;;4401785;32;20371;-55
2021/07/14 03:34:54;;;;;;;16.65;12.60;;;;;;;;;;4402224;32;20236;-55
2021/07/14 03:37:21;;;;;;;15.57;12.15;;;;;;;;;;4401872;32;20290;-57
2021/07/14 03:39:47;;;;;;;18.60;11.18;;;;;;;;;;4400309;32;20249;-55
2021/07/14 03:42:16;;;;;;;16.90;11.05;;;;;;;;;;4401853;32;20268;-55
2021/07/14 03:44:44;;;;;;;11.93;10.48;;;;;;;;;;4401683;32;20368;-56
2021/07/14 03:47:11;;;;;;;16.27;11.73;;;;;;;;;;4401834;32;20591;-55
2021/07/14 03:49:38;;;;;;;13.20;10.60;;;;;;;;;;4401491;32;20332;-55
2021/07/14 03:52:04;;;;;;;14.43;9.98;;;;;;;;;;4401794;32;20245;-55
2021/07/14 03:54:31;;;;;;;14.30;11.15;;;;;;;;;;4402012;32;20218;-56
2021/07/14 03:56:57;;;;;;;12.80;10.32;;;;;;;;;;4395309;32;20218;-55
2021/07/14 03:59:24;;;;;;;11.90;10.63;;;;;;;;;;4393451;32;20646;-55
2021/07/14 04:01:50;;;;;;;14.32;12.25;;;;;;;;;;4402197;32;20241;-56
2021/07/14 04:04:15;;;;;;;14.85;9.85;;;;;;;;;;4401981;32;20256;-56
2021/07/14 04:06:45;;;;;;;13.18;9.88;;;;;;;;;;4399951;32;20244;-55
2021/07/14 04:09:16;;;;;;;13.98;10.15;;;;;;;;;;4401130;32;20256;-56
2021/07/14 04:11:42;;;;;;;14.27;10.02;;;;;;;;;;4401699;32;20213;-56
2021/07/14 04:14:08;;;;;;;12.43;10.00;;;;;;;;;;4404444;32;20312;-56
2021/07/14 04:16:34;;;;;;;14.75;10.18;;;;;;;;;;4404576;32;20259;-55
2021/07/14 04:19:00;;;;;;;12.05;9.13;;;;;;;;;;4404595;32;20559;-55
2021/07/14 04:21:26;;;;;;;11.90;10.68;;;;;;;;;;4404258;32;20197;-54
2021/07/14 04:23:51;;;;;;;14.10;10.40;;;;;;;;;;4404207;32;20312;-55
2021/07/14 04:26:17;;;;;;;16.70;11.90;;;;;;;;;;4404228;32;20206;-54
2021/07/14 04:28:43;;;;;;;12.02;10.02;;;;;;;;;;4391453;32;20248;-56
2021/07/14 04:31:08;;;;;;;13.85;12.00;;;;;;;;;;4389052;32;20301;-55
2021/07/14 04:33:35;;;;;;;16.40;10.98;;;;;;;;;;4388577;32;20377;-55
2021/07/14 04:36:00;;;;;;;12.52;10.82;;;;;;;;;;4388123;32;20275;-55
2021/07/14 04:38:26;;;;;;;14.23;11.25;;;;;;;;;;4403743;32;20214;-55
2021/07/14 04:40:52;;;;;;;14.40;11.48;;;;;;;;;;4404053;32;20554;-55
2021/07/14 04:43:18;;;;;;;11.35;10.05;;;;;;;;;;4404002;32;20354;-55
2021/07/14 04:45:43;;;;;;;10.98;9.60;;;;;;;;;;4403460;32;20238;-56
2021/07/14 04:48:09;;;;;;;12.35;10.65;;;;;;;;;;4403537;32;20307;-55
2021/07/14 04:50:35;;;;;;;11.85;10.63;;;;;;;;;;4403819;32;20306;-55
2021/07/14 04:53:01;;;;;;;18.20;11.50;;;;;;;;;;4404062;32;20202;-55
2021/07/14 04:55:26;;;;;;;15.82;11.85;;;;;;;;;;4403920;32;20298;-55
2021/07/14 04:57:52;;;;;;;14.00;11.05;;;;;;;;;;4403452;32;20290;-55
2021/07/14 05:00:17;;;;;;;13.07;11.35;;;;;;;;;;4403939;32;20735;-55
2021/07/14 05:02:44;;;;;;;11.75;10.13;;;;;;;;;;4403644;32;20240;-55
2021/07/14 05:05:12;;;;;;;19.65;11.48;;;;;;;;;;4403671;32;20271;-56
2021/07/14 05:07:37;;;;;;;12.77;11.18;;;;;;;;;;4403072;32;20221;-55
2021/07/14 05:10:03;;;;;;;15.88;10.73;;;;;;;;;;4403647;32;20252;-54
2021/07/14 05:12:29;;;;;;;13.20;11.02;;;;;;;;;;4403594;32;20206;-56
2021/07/14 05:14:54;;;;;;;15.02;11.75;;;;;;;;;;4403962;32;20245;-55
2021/07/14 05:17:20;;;;;;;12.00;10.77;;;;;;;;;;4403907;32;20263;-56
2021/07/14 05:19:45;;;;;;;22.70;10.60;;;;;;;;;;4404086;32;20241;-55
2021/07/14 05:22:11;;;;;;;14.48;10.57;;;;;;;;;;4403742;32;20226;-55
2021/07/14 05:24:36;;;;;;;14.40;11.40;;;;;;;;;;4390002;32;20252;-56
2021/07/14 05:27:02;;;;;;;13.93;11.63;;;;;;;;;;4403338;32;20287;-56
2021/07/14 05:29:28;;;;;;;15.75;11.25;;;;;;;;;;4402624;32;20336;-56
2021/07/14 05:31:53;;;;;;;18.33;11.93;;;;;;;;;;4403511;32;20213;-55
2021/07/14 05:34:19;;;;;;;14.25;12.00;;;;;;;;;;4403792;32;20252;-55
2021/07/14 05:36:44;;;;;;;12.00;10.25;;;;;;;;;;4402822;32;20310;-55
2021/07/14 05:39:10;;;;;;;15.73;11.43;;;;;;;;;;4403277;32;20249;-56
2021/07/14 05:41:36;;;;;;;12.18;10.40;;;;;;;;;;4402272;32;20253;-55
2021/07/14 05:44:02;;;;;;;15.18;12.93;;;;;;;;;;4402320;32;20272;-56
2021/07/14 05:46:27;;;;;;;14.80;11.98;;;;;;;;;;4401107;32;20252;-56
2021/07/14 05:48:53;;;;;;;16.62;11.40;;;;;;;;;;4401110;32;20581;-55
2021/07/14 05:51:18;;;;;;;18.60;12.05;;;;;;;;;;4401268;32;20301;-55
2021/07/14 05:53:44;;;;;;;20.02;13.20;;;;;;;;;;4400138;32;20256;-55
2021/07/14 05:56:09;;;;;;;16.15;11.70;;;;;;;;;;4399989;32;20232;-55
2021/07/14 05:58:35;;;;;;;17.65;11.63;;;;;;;;;;4402022;32;20255;-55
2021/07/14 06:01:00;;;;;;;16.27;13.40;;;;;;;;;;4403391;32;20248;-56
2021/07/14 06:03:26;;;;;;;16.15;12.90;;;;;;;;;;4403599;32;20542;-55
2021/07/14 06:05:51;;;;;;;26.10;12.32;;;;;;;;;;4402466;32;20596;-55
2021/07/14 06:08:17;;;;;;;12.48;11.18;;;;;;;;;;4402893;32;20245;-55
2021/07/14 06:10:42;;;;;;;14.38;11.75;;;;;;;;;;4402561;32;20254;-55
2021/07/14 06:13:08;;;;;;;12.60;11.30;;;;;;;;;;4403325;32;20336;-56
2021/07/14 06:15:33;;;;;;;13.57;11.02;;;;;;;;;;4402679;32;20268;-54
2021/07/14 06:17:59;;;;;;;11.50;10.30;;;;;;;;;;4402624;32;20229;-55
2021/07/14 06:20:24;;;;;;;14.93;12.20;;;;;;;;;;4403058;32;20285;-55
2021/07/14 06:22:50;;;;;;;14.45;11.77;;;;;;;;;;4403036;32;20252;-55
2021/07/14 06:25:16;;;;;;;12.95;11.43;;;;;;;;;;4403212;32;20280;-57
2021/07/14 06:27:43;;;;;;;15.00;10.43;;;;;;;;;;4395285;32;20249;-55
2021/07/14 06:30:10;;;;;;;12.68;10.30;;;;;;;;;;4388138;32;20317;-55
2021/07/14 06:32:37;;;;;;;13.70;10.93;;;;;;;;;;4386267;32;20222;-55
2021/07/14 06:35:05;;;;;;;12.45;9.95;;;;;;;;;;4387865;32;20249;-55
2021/07/14 06:37:30;;;;;;;18.17;10.77;;;;;;;;;;4395825;32;20217;-55
2021/07/14 06:39:55;;;;;;;13.45;10.80;;;;;;;;;;4401008;32;20241;-56
2021/07/14 06:42:21;;;;;;;15.35;11.77;;;;;;;;;;4401213;32;20288;-57
2021/07/14 06:44:47;;;;;;;13.50;11.65;;;;;;;;;;4403062;32;20243;-55
2021/07/14 06:47:13;;;;;;;14.05;11.52;;;;;;;;;;4401607;32;20338;-55
2021/07/14 06:49:39;;;;;;;14.25;11.30;;;;;;;;;;4402755;32;20409;-55
2021/07/14 06:52:05;;;;;;;13.60;11.82;;;;;;;;;;4402759;32;20763;-56
2021/07/14 06:54:30;;;;;;;13.55;12.05;;;;;;;;;;4403007;32;20221;-56
2021/07/14 06:56:56;;;;;;;13.82;11.07;;;;;;;;;;4402575;32;20302;-55
2021/07/14 06:59:22;;;;;;;15.88;12.20;;;;;;;;;;4402623;32;20547;-55
2021/07/14 07:01:47;;;;;;;16.37;11.65;;;;;;;;;;4402741;32;20272;-56
2021/07/14 07:04:13;;;;;;;12.75;11.48;;;;;;;;;;4402838;32;20236;-56
2021/07/14 07:06:38;;;;;;;14.68;12.35;;;;;;;;;;4402328;32;20312;-56
2021/07/14 07:09:05;;;;;;;14.38;11.60;;;;;;;;;;4402095;32;20287;-56
2021/07/14 07:11:34;;;;;;;13.62;12.20;;;;;;;;;;4402242;32;20599;-56
2021/07/14 07:14:00;;;;;;;18.25;12.60;;;;;;;;;;4402498;32;20612;-54
2021/07/14 07:16:26;;;;;;;15.88;11.65;;;;;;;;;;4402925;32;20268;-56
2021/07/14 07:18:51;;;;;;;14.70;12.57;;;;;;;;;;4402303;32;20248;-56
2021/07/14 07:21:17;;;;;;;12.73;10.50;;;;;;;;;;4401189;32;20338;-56
2021/07/14 07:23:45;;;;;;;14.48;12.20;;;;;;;;;;4402054;32;20239;-55
2021/07/14 07:26:12;;;;;;;17.08;11.70;;;;;;;;;;4401785;32;20233;-56
2021/07/14 07:28:41;;;;;;;15.75;11.82;;;;;;;;;;4401322;32;20334;-55
2021/07/14 07:31:09;;;;;;;16.65;10.48;;;;;;;;;;4401418;32;20244;-55
2021/07/14 07:33:35;;;;;;;12.65;11.30;;;;;;;;;;4400602;32;20253;-56
2021/07/14 07:36:02;;;;;;;16.67;12.35;;;;;;;;;;4400428;32;20236;-56
2021/07/14 07:38:28;;;;;;;13.93;11.93;;;;;;;;;;4400501;32;20646;-57
2021/07/14 07:40:54;;;;;;;15.98;11.95;;;;;;;;;;4401018;32;20345;-56
2021/07/14 07:43:21;;;;;;;19.58;11.02;;;;;;;;;;4402141;32;20260;-56
2021/07/14 07:45:46;;;;;;;13.35;10.88;;;;;;;;;;4401821;32;20254;-56
2021/07/14 07:48:12;;;;;;;11.90;10.73;;;;;;;;;;4403420;32;20626;-56
2021/07/14 07:50:38;;;;;;;15.70;11.35;;;;;;;;;;4404698;32;20708;-56
2021/07/14 07:53:03;;;;;;;12.55;11.32;;;;;;;;;;4404554;32;20205;-55
2021/07/14 07:55:29;;;;;;;13.50;11.45;;;;;;;;;;4404685;32;20272;-55
2021/07/14 07:57:54;;;;;;;13.23;11.82;;;;;;;;;;4404337;32;20540;-55
2021/07/14 08:00:21;;;;;;;18.05;12.27;;;;;;;;;;4392091;32;20307;-55
2021/07/14 08:02:46;;;;;;;19.02;11.88;;;;;;;;;;4391086;32;20226;-56
2021/07/14 08:05:12;;;;;;;12.27;11.07;;;;;;;;;;4400323;32;20388;-58
2021/07/14 08:07:38;;;;;;;11.75;10.05;;;;;;;;;;4402933;32;20780;-55
2021/07/14 08:10:07;;;;;;;12.82;10.77;;;;;;;;;;4404772;32;20249;-56
2021/07/14 08:12:33;;;;;;;13.68;10.57;;;;;;;;;;4403999;32;20213;-56
2021/07/14 08:14:59;;;;;;;11.02;9.93;;;;;;;;;;4403966;32;20669;-56
2021/07/14 08:17:25;;;;;;;11.68;9.65;;;;;;;;;;4403969;32;20198;-55
2021/07/14 08:19:52;;;;;;;22.15;10.45;;;;;;;;;;4405137;32;20303;-56
2021/07/14 08:22:17;;;;;;;12.55;10.32;;;;;;;;;;4404302;32;20267;-56
2021/07/14 08:24:43;;;;;;;11.52;8.68;;;;;;;;;;4405535;32;20210;-56
2021/07/14 08:27:09;;;;;;;10.38;9.25;;;;;;;;;;4404733;32;20354;-56
2021/07/14 08:29:34;;;;;;;10.90;9.52;;;;;;;;;;4405403;32;20614;-56
2021/07/14 08:32:00;;;;;;;12.55;9.93;;;;;;;;;;4394707;32;20268;-55
2021/07/14 08:34:25;;;;;;;12.50;9.77;;;;;;;;;;4390035;32;20206;-56
2021/07/14 08:36:50;;;;;;;12.98;10.82;;;;;;;;;;4395902;32;20669;-55
2021/07/14 08:39:16;;;;;;;11.45;10.13;;;;;;;;;;4395155;32;20237;-55
2021/07/14 08:41:44;;;;;;;12.43;10.75;;;;;;;;;;4402673;32;20310;-55
2021/07/14 08:44:13;;;;;;;12.02;10.10;;;;;;;;;;4404680;32;20593;-55
2021/07/14 08:46:39;;;;;;;15.95;10.25;;;;;;;;;;4403976;32;20194;-56
2021/07/14 08:49:06;;;;;;;11.93;9.23;;;;;;;;;;4404777;32;20516;-56
2021/07/14 08:51:36;;;;;;;15.20;9.80;;;;;;;;;;4404545;32;20274;-55
2021/07/14 08:54:02;;;;;;;10.30;9.23;;;;;;;;;;4404169;32;20213;-55
2021/07/14 08:56:28;;;;;;;13.32;9.98;;;;;;;;;;4404493;32;20249;-55
2021/07/14 08:58:54;;;;;;;14.23;9.55;;;;;;;;;;4403037;32;20256;-55
2021/07/14 09:01:19;;;;;;;10.45;9.32;;;;;;;;;;4403386;32;20264;-56
2021/07/14 09:03:45;;;;;;;12.77;10.48;;;;;;;;;;4402989;32;20655;-55
2021/07/14 09:06:10;;;;;;;17.00;11.60;;;;;;;;;;4401905;32;20315;-55
2021/07/14 09:08:37;;;;;;;11.60;10.43;;;;;;;;;;4404110;32;20251;-55
2021/07/14 09:11:04;;;;;;;13.80;10.10;;;;;;;;;;4403750;32;20244;-55
2021/07/14 09:13:37;;;;;;;12.40;9.60;;;;;;;;;;4403039;32;20287;-56
2021/07/14 09:16:04;;;;;;;12.25;10.70;;;;;;;;;;4403995;32;20218;-56
2021/07/14 09:18:31;;;;;;;14.48;9.38;;;;;;;;;;4403844;32;20225;-55
2021/07/14 09:21:02;;;;;;;11.85;10.63;;;;;;;;;;4403771;32;20219;-56
2021/07/14 09:23:32;;;;;;;11.23;9.90;;;;;;;;;;4403086;32;20209;-56
2021/07/14 09:26:04;;;;;;;11.77;10.40;;;;;;;;;;4404010;32;20598;-56
2021/07/14 09:28:35;;;;;;;11.88;10.68;;;;;;;;;;4402638;32;20253;-56
2021/07/14 09:31:03;;;;;;;12.50;11.20;;;;;;;;;;4404447;32;20243;-55
2021/07/14 09:33:29;;;;;;;11.18;8.93;;;;;;;;;;4402645;32;20257;-56
2021/07/14 09:36:00;;;;;;;11.60;9.82;;;;;;;;;;4404352;32;20261;-56
2021/07/14 09:38:30;;;;;;;11.77;10.57;;;;;;;;;;4404029;32;20300;-56
2021/07/14 09:40:56;;;;;;;11.60;9.57;;;;;;;;;;4403819;32;20209;-56
2021/07/14 09:43:27;;;;;;;17.15;11.75;;;;;;;;;;4403828;32;20272;-56
2021/07/14 09:45:57;;;;;;;10.90;9.73;;;;;;;;;;4404031;32;20194;-56
2021/07/14 09:48:28;;;;;;;11.65;10.43;;;;;;;;;;4403552;32;20215;-56
2021/07/14 09:50:58;;;;;;;11.05;9.73;;;;;;;;;;4403769;32;20255;-56
2021/07/14 09:53:26;;;;;;;15.65;10.23;;;;;;;;;;4403395;32;20708;-56
2021/07/14 09:55:58;;;;;;;15.70;9.25;;;;;;;;;;4403691;32;20214;-55
2021/07/14 09:58:27;;;;;;;9.80;8.80;;;;;;;;;;4388076;32;20210;-55
2021/07/14 10:00:58;;;;;;;11.85;9.02;;;;;;;;;;4388480;32;20232;-56
2021/07/14 10:03:24;;;;;;;8.25;7.40;;;;;;;;;;4388177;32;20662;-56
2021/07/14 10:06:00;;;;;;;13.57;8.57;;;;;;;;;;4392369;32;20399;-56
2021/07/14 10:08:25;;;;;;;12.98;10.00;;;;;;;;;;4403069;32;20263;-56
2021/07/14 10:11:05;;;;;;;8.32;7.45;;;;;;;;;;4400432;32;20237;-55
2021/07/14 10:13:31;;;;;;;8.52;6.85;;;;;;;;;;4401805;32;20209;-55
2021/07/14 10:16:04;;;;;;;11.77;9.20;;;;;;;;;;4399698;32;20536;-55
2021/07/14 10:18:32;;;;;;;10.35;8.48;;;;;;;;;;4400777;32;20222;-56
2021/07/14 10:21:02;;;;;;;10.07;8.40;;;;;;;;;;4402780;32;20695;-56
2021/07/14 10:23:30;;;;;;;9.60;8.60;;;;;;;;;;4402050;32;20617;-56
2021/07/14 10:25:56;;;;;;;8.93;8.07;;;;;;;;;;4402816;32;20242;-56
2021/07/14 10:28:23;;;;;;;12.32;7.47;;;;;;;;;;4403076;32;20271;-56
2021/07/14 10:30:51;;;;;;;10.50;7.50;;;;;;;;;;4402468;32;20366;-56
2021/07/14 10:33:18;;;;;;;10.02;8.18;;;;;;;;;;4402617;32;20506;-56
2021/07/14 10:35:46;;;;;;;8.50;7.60;;;;;;;;;;4402534;32;20246;-56
2021/07/14 10:38:25;;;;;;;8.55;7.65;;;;;;;;;;4402963;32;20259;-55
2021/07/14 10:40:52;;;;;;;9.60;8.60;;;;;;;;;;4402852;32;20225;-56
2021/07/14 10:43:21;;;;;;;10.50;7.68;;;;;;;;;;4400585;32;20247;-56
2021/07/14 10:45:48;;;;;;;8.02;7.22;;;;;;;;;;4402631;32;20291;-56
2021/07/14 10:48:16;;;;;;;11.05;7.97;;;;;;;;;;4402296;32;20217;-57
2021/07/14 10:50:42;;;;;;;8.02;7.15;;;;;;;;;;4402717;32;20349;-55
2021/07/14 10:53:11;;;;;;;8.70;7.78;;;;;;;;;;4395680;32;20728;-58
2021/07/14 10:55:38;;;;;;;9.18;8.27;;;;;;;;;;4387384;32;20574;-56
2021/07/14 10:58:04;;;;;;;8.95;8.05;;;;;;;;;;4387895;32;20586;-56
2021/07/14 11:00:37;;;;;;;9.88;8.65;;;;;;;;;;4401150;32;20220;-56
2021/07/14 11:03:02;;;;;;;11.18;8.40;;;;;;;;;;4402360;32;20294;-55
2021/07/14 11:05:47;;;;;;;9.02;8.10;;;;;;;;;;4402354;32;20324;-56
2021/07/14 11:08:50;;;;;;;8.77;7.90;;;;;;;;;;4401962;32;20218;-56
2021/07/14 11:11:23;;;;;;;8.25;6.72;;;;;;;;;;4401184;32;20232;-56
2021/07/14 11:14:03;;;;;;;13.65;7.65;;;;;;;;;;4401753;32;20363;-56
2021/07/14 11:16:36;;;;;;;10.65;8.23;;;;;;;;;;4402552;32;20358;-56
2021/07/14 11:19:11;;;;;;;10.20;7.05;;;;;;;;;;4387398;32;20248;-56
2021/07/14 11:21:51;;;;;;;9.20;7.07;;;;;;;;;;4388124;32;20286;-56
2021/07/14 11:24:49;;;;;;;9.23;7.07;;;;;;;;;;4390146;32;20296;-55
2021/07/14 11:27:27;;;;;;;11.05;7.57;;;;;;;;;;4401712;32;20236;-55
2021/07/14 11:30:15;;;;;;;10.55;8.23;;;;;;;;;;4405727;32;20233;-56
2021/07/14 11:32:43;;;;;;;9.32;7.68;;;;;;;;;;4404978;32;20243;-56
2021/07/14 11:35:15;;;;;;;13.35;8.05;;;;;;;;;;4405548;32;20373;-55
2021/07/14 11:37:42;;;;;;;12.85;7.72;;;;;;;;;;4405237;32;20715;-55
2021/07/14 11:42:50;;;;;;;9.73;6.28;;;;;;;;;;4390171;32;20629;-56
2021/07/14 11:45:40;;;;;;;7.12;6.43;;;;;;;;;;4402211;32;20252;-56
2021/07/14 11:48:08;;;;;;;7.72;6.95;;;;;;;;;;4404879;32;20225;-56
2021/07/14 11:50:43;;;;;;;9.68;6.55;;;;;;;;;;4405066;32;20250;-56
2021/07/14 11:53:37;;;;;;;9.23;7.10;;;;;;;;;;4390041;32;20257;-56
2021/07/14 11:56:11;;;;;;;9.60;6.72;;;;;;;;;;4390503;32;20189;-56
2021/07/14 11:58:46;;;;;;;7.22;5.28;;;;;;;;;;4391998;32;20287;-55
2021/07/14 12:01:17;;;;;;;6.50;5.80;;;;;;;;;;4405251;32;20217;-57
2021/07/14 12:04:01;;;;;;;9.25;5.78;;;;;;;;;;4404802;32;20280;-56
2021/07/14 12:06:47;;;;;;;10.77;6.15;;;;;;;;;;4405007;32;20267;-57
2021/07/14 12:09:12;;;;;;;8.05;5.87;;;;;;;;;;4404835;32;20594;-58
2021/07/14 12:11:44;;;;;;;8.10;5.62;;;;;;;;;;4404550;32;20315;-55
2021/07/14 12:14:24;;;;;;;12.10;5.60;;;;;;;;;;4405129;32;20302;-56
2021/07/14 12:16:53;;;;;;;12.10;6.22;;;;;;;;;;4405381;32;20617;-54
2021/07/14 12:19:24;;;;;;;6.95;5.12;;;;;;;;;;4393203;32;20313;-56
2021/07/14 12:21:50;;;;;;;5.80;4.25;;;;;;;;;;4389828;32;20260;-56
2021/07/14 12:24:33;;;;;;;7.65;5.35;;;;;;;;;;4389603;32;20218;-56
2021/07/14 12:27:03;;;;;;;6.55;5.15;;;;;;;;;;4389346;32;20977;-57
2021/07/14 12:29:30;;;;;;;6.70;5.20;;;;;;;;;;4389574;32;20406;-56
2021/07/14 12:31:56;;;;;;;7.93;4.75;;;;;;;;;;4399161;32;20602;-57
2021/07/14 12:34:29;;;;;;;7.68;5.20;;;;;;;;;;4403893;32;20240;-56
2021/07/14 12:36:56;;;;;;;5.97;5.10;;;;;;;;;;4404547;32;20225;-56
2021/07/14 12:39:26;;;;;;;5.70;5.05;;;;;;;;;;4404650;32;20308;-57
2021/07/14 12:41:53;;;;;;;9.65;5.45;;;;;;;;;;4404668;32;20205;-56
2021/07/14 12:44:19;;;;;;;17.95;5.62;;;;;;;;;;4404360;32;20345;-57
2021/07/14 12:46:45;;;;;;;11.45;6.70;;;;;;;;;;4404274;32;20307;-56
2021/07/14 12:49:16;;;;;;;10.02;5.47;;;;;;;;;;4403815;32;20265;-56
2021/07/14 12:51:59;;;;;;;9.80;5.53;;;;;;;;;;4403825;32;20285;-56
2021/07/14 12:54:25;;;;;;;11.98;5.95;;;;;;;;;;4404563;32;20256;-56
2021/07/14 12:56:50;;;;;;;8.02;4.80;;;;;;;;;;4403766;32;20284;-57
2021/07/14 12:59:16;;;;;;;7.72;5.50;;;;;;;;;;4403963;32;20755;-56
2021/07/14 13:01:45;;;;;;;9.60;5.78;;;;;;;;;;4404213;32;20293;-56
2021/07/14 13:04:15;;;;;;;9.20;5.32;;;;;;;;;;4404013;32;20384;-56
2021/07/14 13:06:41;;;;;;;8.63;5.65;;;;;;;;;;4403577;32;20305;-56
2021/07/14 13:09:10;;;;;;;4.97;4.47;;;;;;;;;;4403580;32;20226;-57
2021/07/14 13:11:36;;;;;;;14.82;5.53;;;;;;;;;;4403282;32;20319;-58
2021/07/14 13:14:02;;;;;;;7.22;4.97;;;;;;;;;;4403402;32;20225;-57
2021/07/14 13:16:29;;;;;;;8.63;5.78;;;;;;;;;;4402197;32;20332;-56
2021/07/14 13:18:59;;;;;;;11.02;4.68;;;;;;;;;;4403599;32;20222;-56
2021/07/14 13:21:27;;;;;;;15.05;5.43;;;;;;;;;;4403947;32;20197;-55
2021/07/14 13:24:04;;;;;;;6.82;5.18;;;;;;;;;;4403626;32;20253;-57
2021/07/14 13:26:30;;;;;;;7.78;5.07;;;;;;;;;;4403272;32;20270;-57
2021/07/14 13:28:55;;;;;;;7.68;4.85;;;;;;;;;;4401826;32;20262;-57
2021/07/14 13:31:26;;;;;;;11.27;5.62;;;;;;;;;;4403831;32;20736;-57
2021/07/14 13:33:59;;;;;;;6.97;5.03;;;;;;;;;;4403392;32;20252;-56
2021/07/14 13:36:30;;;;;;;6.72;5.50;;;;;;;;;;4402766;32;20213;-57
2021/07/14 13:38:57;;;;;;;9.98;4.87;;;;;;;;;;4400846;32;20233;-57
2021/07/14 13:41:40;;;;;;;7.62;5.20;;;;;;;;;;4403549;32;20280;-57
2021/07/14 13:44:11;;;;;;;5.60;4.50;;;;;;;;;;4402970;32;20285;-57
2021/07/14 13:46:40;;;;;;;10.93;5.20;;;;;;;;;;4401809;32;20283;-56
2021/07/14 13:49:11;;;;;;;13.55;5.25;;;;;;;;;;4403082;32;20637;-57
2021/07/14 13:51:41;;;;;;;13.38;6.15;;;;;;;;;;4396821;32;20606;-57
2021/07/14 13:54:38;;;;;;;9.45;4.50;;;;;;;;;;4395674;32;20279;-56
2021/07/14 13:57:06;;;;;;;9.77;5.37;;;;;;;;;;4402374;32;20289;-56
2021/07/14 13:59:38;;;;;;;5.80;4.90;;;;;;;;;;4402287;32;20761;-56
2021/07/14 14:02:10;;;;;;;5.87;4.68;;;;;;;;;;4402642;32;20296;-56
2021/07/14 14:05:08;;;;;;;7.62;4.90;;;;;;;;;;4402143;32;20285;-57
2021/07/14 14:07:41;;;;;;;6.50;4.50;;;;;;;;;;4401146;32;20244;-56
2021/07/14 14:10:22;;;;;;;13.35;6.25;;;;;;;;;;4402056;32;20229;-55
2021/07/14 14:12:48;;;;;;;7.22;5.22;;;;;;;;;;4401970;32;20778;-56
2021/07/14 14:15:23;;;;;;;8.88;5.82;;;;;;;;;;4402311;32;20209;-56
2021/07/14 14:17:53;;;;;;;11.63;5.30;;;;;;;;;;4402249;32;20315;-57
2021/07/14 14:20:26;;;;;;;8.90;5.50;;;;;;;;;;4402436;32;20398;-57
2021/07/14 14:22:51;;;;;;;11.18;4.22;;;;;;;;;;4400736;32;20614;-57
2021/07/14 14:25:22;;;;;;;10.13;5.28;;;;;;;;;;4402011;32;20283;-56
2021/07/14 14:27:57;;;;;;;11.18;5.50;;;;;;;;;;4400373;32;20283;-57
2021/07/14 14:30:27;;;;;;;11.00;4.90;;;;;;;;;;4401738;32;20329;-56
2021/07/14 14:32:55;;;;;;;13.70;6.55;;;;;;;;;;4386651;32;20339;-57
2021/07/14 14:35:23;;;;;;;9.35;6.15;;;;;;;;;;4386660;32;20700;-56
2021/07/14 14:37:49;;;;;;;13.73;5.70;;;;;;;;;;4386969;32;20296;-56
2021/07/14 14:40:16;;;;;;;6.78;4.82;;;;;;;;;;4386719;32;20357;-57
2021/07/14 14:42:42;;;;;;;11.98;5.65;;;;;;;;;;4386769;32;20209;-56
2021/07/14 14:45:08;;;;;;;10.98;6.62;;;;;;;;;;4387790;32;20229;-57
2021/07/14 14:47:34;;;;;;;10.60;4.95;;;;;;;;;;4393679;32;20309;-56